Terminal Aerodrome Forecast
Issued by NWS

Home | Current Version | Previous Version | Text Only | Print | Product List | Glossary On
Versions: 1 2 3 4 5 6 7 8 9 10 11 12 13 14 15
000
FTUS43 KOAX 302300
TAFSNY
TAF
KSNY 302320Z 3100/3124 19013G23KT P6SM SCT100
     FM310100 24013KT P6SM VCSH BKN100
     FM310500 23011KT P6SM BKN150
     FM311100 29012KT P6SM BKN200
     FM311800 29012G22KT P6SM SCT070 BKN150=

USA.gov is the U.S. government's official web portal to all federal, state and local government web resources and services.